createdAt,value
2023-12-09T00:00:38.244Z,-3.45
2023-12-09T00:03:04.982Z,-3.44
2023-12-09T00:05:31.665Z,-3.40
2023-12-09T00:07:58.125Z,-3.40
2023-12-09T00:10:24.596Z,-3.47
2023-12-09T00:12:51.037Z,-3.41
2023-12-09T00:15:17.677Z,-3.45
2023-12-09T00:17:44.516Z,-3.42
2023-12-09T00:20:11.325Z,-3.45
2023-12-09T00:22:37.783Z,-3.43
2023-12-09T00:25:04.986Z,-3.46
2023-12-09T00:27:31.577Z,-3.42
2023-12-09T00:29:58.008Z,-3.39
2023-12-09T00:32:24.855Z,-3.37
2023-12-09T00:34:51.484Z,-3.37
2023-12-09T00:37:17.923Z,-3.39
2023-12-09T00:39:44.339Z,-3.40
2023-12-09T00:42:11.533Z,-3.38
2023-12-09T00:44:38.001Z,-3.40
2023-12-09T00:47:04.557Z,-3.39
2023-12-09T00:49:31.199Z,-3.41
2023-12-09T00:51:57.666Z,-3.40
2023-12-09T00:54:24.188Z,-3.43
2023-12-09T00:56:50.799Z,-3.35
2023-12-09T00:59:17.270Z,-3.42
2023-12-09T01:01:43.717Z,-3.44
2023-12-09T01:04:10.293Z,-3.38
2023-12-09T01:06:36.812Z,-3.37
2023-12-09T01:09:03.456Z,-3.38
2023-12-09T01:11:29.971Z,-3.42
2023-12-09T01:13:56.360Z,-3.44
2023-12-09T01:16:22.802Z,-3.44
2023-12-09T01:18:49.491Z,-3.41
2023-12-09T01:21:16.335Z,-3.38
2023-12-09T01:23:42.806Z,-3.40
2023-12-09T01:26:09.352Z,-3.44
2023-12-09T01:28:35.776Z,-3.45
2023-12-09T01:31:02.243Z,-3.43
2023-12-09T01:33:28.846Z,-3.46
2023-12-09T01:35:55.384Z,-3.42
2023-12-09T01:38:21.850Z,-3.40
2023-12-09T01:40:54.969Z,-3.48
2023-12-09T01:43:21.621Z,-3.49
2023-12-09T01:45:48.090Z,-3.46
2023-12-09T01:48:14.712Z,-3.47
2023-12-09T01:50:41.250Z,-3.49
2023-12-09T01:53:07.721Z,-3.47
2023-12-09T01:55:34.247Z,-3.49
2023-12-09T01:58:00.787Z,-3.54
2023-12-09T02:00:27.173Z,-3.53
2023-12-09T02:02:53.816Z,-3.48
2023-12-09T02:05:20.454Z,-3.54
2023-12-09T02:07:46.912Z,-3.52
2023-12-09T02:10:13.370Z,-3.54
2023-12-09T02:13:09.528Z,-3.49
2023-12-09T02:15:40.499Z,-3.46
2023-12-09T02:18:07.280Z,-3.47
2023-12-09T02:20:34.187Z,-3.48
2023-12-09T02:23:07.479Z,-3.47
2023-12-09T02:25:34.169Z,-3.51
2023-12-09T02:28:01.807Z,-3.47
2023-12-09T02:30:37.566Z,-3.48
2023-12-09T02:33:04.924Z,-3.56
2023-12-09T02:35:31.467Z,-3.55
2023-12-09T02:37:58.150Z,-3.62
2023-12-09T02:40:24.572Z,-3.56
2023-12-09T02:42:51.239Z,-3.52
2023-12-09T02:45:18.876Z,-3.51
2023-12-09T02:47:46.997Z,-3.52
2023-12-09T02:50:13.607Z,-3.49
2023-12-09T02:52:40.465Z,-3.50
2023-12-09T02:55:07.505Z,-3.48
2023-12-09T02:57:34.055Z,-3.51
2023-12-09T03:00:00.988Z,-3.50
2023-12-09T03:02:27.741Z,-3.48
2023-12-09T03:04:54.347Z,-3.43
2023-12-09T03:07:21.823Z,-3.52
2023-12-09T03:09:48.381Z,-3.52
2023-12-09T03:12:14.899Z,-3.52
2023-12-09T03:14:41.358Z,-3.50
2023-12-09T03:17:07.786Z,-3.47
2023-12-09T03:19:34.471Z,-3.45
2023-12-09T03:22:01.094Z,-3.47
2023-12-09T03:24:27.581Z,-3.49
2023-12-09T03:26:54.286Z,-3.54
2023-12-09T03:29:21.047Z,-3.52
2023-12-09T03:31:47.990Z,-3.53
2023-12-09T03:34:14.634Z,-3.54
2023-12-09T03:36:41.647Z,-3.49
2023-12-09T03:39:08.374Z,-3.49
2023-12-09T03:41:35.125Z,-3.45
2023-12-09T03:44:01.891Z,-3.45
2023-12-09T03:46:28.364Z,-3.46
2023-12-09T03:48:54.925Z,-3.48
2023-12-09T03:51:21.498Z,-3.47
2023-12-09T03:53:47.977Z,-3.45
2023-12-09T03:56:17.037Z,-3.38
2023-12-09T03:58:43.548Z,-3.41
2023-12-09T04:01:10.380Z,-3.48
2023-12-09T04:03:36.944Z,-3.28
2023-12-09T04:06:04.977Z,-3.26
2023-12-09T04:08:32.116Z,-3.26
2023-12-09T04:10:58.549Z,-3.40
2023-12-09T04:13:25.065Z,-3.31
2023-12-09T04:15:51.468Z,-3.27
2023-12-09T04:18:18.606Z,-3.32
2023-12-09T04:20:45.277Z,-3.43
2023-12-09T04:23:11.830Z,-3.36
2023-12-09T04:25:38.231Z,-3.35
2023-12-09T04:28:04.803Z,-3.31
2023-12-09T04:30:31.284Z,-3.30
2023-12-09T04:32:57.834Z,-3.28
2023-12-09T04:35:24.313Z,-3.30
2023-12-09T04:37:50.685Z,-3.40
2023-12-09T04:40:18.837Z,-3.40
2023-12-09T04:42:45.664Z,-3.33
2023-12-09T04:45:12.155Z,-3.31
2023-12-09T04:47:39.711Z,-3.30
2023-12-09T04:50:12.456Z,-3.37
2023-12-09T04:52:38.960Z,-3.38
2023-12-09T04:55:05.725Z,-3.31
2023-12-09T04:57:32.517Z,-3.24
2023-12-09T04:59:59.116Z,-3.28
2023-12-09T05:02:25.875Z,-3.27
2023-12-09T05:04:54.131Z,-3.32
2023-12-09T05:07:20.597Z,-3.33
2023-12-09T05:09:47.093Z,-3.30
2023-12-09T05:12:13.627Z,-3.24
2023-12-09T05:14:40.321Z,-3.27
2023-12-09T05:17:06.802Z,-3.21
2023-12-09T05:19:33.533Z,-3.30
2023-12-09T05:22:01.108Z,-3.28
2023-12-09T05:24:27.732Z,-3.28
2023-12-09T05:26:54.307Z,-3.28
2023-12-09T05:29:20.763Z,-3.29
2023-12-09T05:31:47.265Z,-3.35
2023-12-09T05:34:13.890Z,-3.40
2023-12-09T05:36:40.400Z,-3.37
2023-12-09T05:39:06.940Z,-3.32
2023-12-09T05:41:33.431Z,-3.28
2023-12-09T05:43:59.931Z,-3.28
2023-12-09T05:46:26.351Z,-3.40
2023-12-09T05:48:53.305Z,-3.36
2023-12-09T05:51:19.983Z,-3.35
2023-12-09T05:53:46.443Z,-3.32
2023-12-09T05:56:13.111Z,-3.34
2023-12-09T05:58:40.384Z,-3.37
2023-12-09T06:01:07.270Z,-3.32
2023-12-09T06:03:33.917Z,-3.28
2023-12-09T06:06:00.467Z,-3.37
2023-12-09T06:08:27.025Z,-3.31
2023-12-09T06:10:53.590Z,-3.29
2023-12-09T06:13:20.027Z,-3.25
2023-12-09T06:15:48.799Z,-3.30
2023-12-09T06:18:16.887Z,-3.25
2023-12-09T06:20:43.408Z,-3.25
2023-12-09T06:23:09.961Z,-3.17
2023-12-09T06:25:36.450Z,-3.23
2023-12-09T06:28:03.466Z,-3.26
2023-12-09T06:30:30.590Z,-3.30
2023-12-09T06:32:57.211Z,-3.20
2023-12-09T06:35:23.842Z,-3.19
2023-12-09T06:37:50.241Z,-3.26
2023-12-09T06:40:16.773Z,-3.25
2023-12-09T06:42:43.268Z,-3.27
2023-12-09T06:45:09.931Z,-3.25
2023-12-09T06:47:36.759Z,-3.24
2023-12-09T06:50:03.604Z,-3.28
2023-12-09T06:52:30.292Z,-3.20
2023-12-09T06:54:56.765Z,-3.26
2023-12-09T06:57:23.257Z,-3.17
2023-12-09T06:59:49.743Z,-3.16
2023-12-09T07:02:16.237Z,-3.27
2023-12-09T07:04:42.741Z,-3.23
2023-12-09T07:07:15.966Z,-3.24
2023-12-09T07:09:45.449Z,-3.19
2023-12-09T07:12:11.917Z,-3.18
2023-12-09T07:14:38.363Z,-3.21
2023-12-09T07:17:04.946Z,-3.21
2023-12-09T07:19:31.441Z,-3.20
2023-12-09T07:21:57.920Z,-3.19
2023-12-09T07:24:24.474Z,-3.12
2023-12-09T07:26:51.005Z,-3.19
2023-12-09T07:29:17.509Z,-3.12
2023-12-09T07:31:43.974Z,-3.12
2023-12-09T07:34:16.776Z,-3.12
2023-12-09T07:36:43.722Z,-3.13
2023-12-09T07:39:10.330Z,-3.14
2023-12-09T07:41:36.984Z,-3.16
2023-12-09T07:44:03.518Z,-3.18
2023-12-09T07:46:30.025Z,-3.17
2023-12-09T07:48:56.616Z,-3.12
2023-12-09T07:51:23.400Z,-3.11
2023-12-09T07:53:50.680Z,-3.12
2023-12-09T07:56:17.105Z,-3.14
2023-12-09T07:58:43.603Z,-3.05
2023-12-09T08:01:11.453Z,-3.07
2023-12-09T08:03:38.915Z,-3.03
2023-12-09T08:06:05.713Z,-3.08
2023-12-09T08:08:32.275Z,-3.09
2023-12-09T08:10:59.995Z,-3.07
2023-12-09T08:13:26.432Z,-3.10
2023-12-09T08:15:53.108Z,-3.13
2023-12-09T08:18:19.798Z,-3.10
2023-12-09T08:20:47.088Z,-3.08
2023-12-09T08:23:13.649Z,-3.10
2023-12-09T08:25:40.464Z,-3.08
2023-12-09T08:28:10.274Z,-3.10
2023-12-09T08:30:36.879Z,-3.12
2023-12-09T08:33:03.729Z,-3.10
2023-12-09T08:35:31.863Z,-2.99
2023-12-09T08:37:58.448Z,-2.99
2023-12-09T08:40:25.032Z,-2.96
2023-12-09T08:42:51.497Z,-3.06
2023-12-09T08:45:18.741Z,-3.10
2023-12-09T08:47:46.102Z,-3.00
2023-12-09T08:50:22.221Z,-3.06
2023-12-09T08:52:51.863Z,-3.06
2023-12-09T08:55:18.461Z,-2.97
2023-12-09T08:57:45.091Z,-2.92
2023-12-09T09:00:11.834Z,-2.91
2023-12-09T09:02:38.335Z,-2.96
2023-12-09T09:05:05.077Z,-2.97
2023-12-09T09:07:31.548Z,-2.99
2023-12-09T09:09:58.052Z,-2.94
2023-12-09T09:12:24.701Z,-2.94
2023-12-09T09:14:51.439Z,-2.98
2023-12-09T09:17:17.874Z,-2.89
2023-12-09T09:19:44.348Z,-2.98
2023-12-09T09:22:10.872Z,-2.83
2023-12-09T09:24:37.714Z,-2.91
2023-12-09T09:27:04.479Z,-2.87
2023-12-09T09:29:30.932Z,-2.86
2023-12-09T09:31:57.375Z,-2.87
2023-12-09T09:34:24.019Z,-2.88
2023-12-09T09:36:50.510Z,-2.94
2023-12-09T09:39:17.430Z,-2.87
2023-12-09T09:42:04.215Z,-2.97
2023-12-09T09:44:30.802Z,-2.98
2023-12-09T09:46:57.644Z,-2.94
2023-12-09T09:49:24.834Z,-2.93
2023-12-09T09:51:53.154Z,-2.88
2023-12-09T09:54:23.263Z,-2.82
2023-12-09T09:56:53.097Z,-2.80
2023-12-09T09:59:19.492Z,-2.75
2023-12-09T10:01:45.966Z,-2.82
2023-12-09T10:04:12.593Z,-2.76
2023-12-09T10:06:39.711Z,-2.78
2023-12-09T10:09:06.807Z,-2.82
2023-12-09T10:11:33.299Z,-2.90
2023-12-09T10:13:59.730Z,-2.84
2023-12-09T10:16:26.183Z,-2.85
2023-12-09T10:18:53.586Z,-2.82
2023-12-09T10:21:20.223Z,-2.75
2023-12-09T10:23:46.908Z,-2.74
2023-12-09T10:26:13.662Z,-2.74
2023-12-09T10:28:40.094Z,-2.72
2023-12-09T10:31:08.855Z,-2.86
2023-12-09T10:33:35.587Z,-2.78
2023-12-09T10:36:02.282Z,-2.76
2023-12-09T10:38:29.263Z,-2.76
2023-12-09T10:40:55.778Z,-2.71
2023-12-09T10:43:22.701Z,-2.74
2023-12-09T10:45:49.219Z,-2.78
2023-12-09T10:48:16.522Z,-2.72
2023-12-09T10:50:45.098Z,-2.72
2023-12-09T10:53:11.618Z,-2.66
2023-12-09T10:55:38.157Z,-2.63
2023-12-09T10:58:05.605Z,-2.61
2023-12-09T11:00:32.546Z,-2.63
2023-12-09T11:02:59.120Z,-2.71
2023-12-09T11:05:25.756Z,-2.69
2023-12-09T11:07:52.333Z,-2.63
2023-12-09T11:10:19.423Z,-2.70
2023-12-09T11:12:47.971Z,-2.66
2023-12-09T11:15:14.590Z,-2.68
2023-12-09T11:17:42.222Z,-2.65
2023-12-09T11:20:15.051Z,-2.58
2023-12-09T11:22:42.258Z,-2.54
2023-12-09T11:25:09.411Z,-2.60
2023-12-09T11:27:36.251Z,-2.59
2023-12-09T11:30:03.021Z,-2.54
2023-12-09T11:32:30.746Z,-2.55
2023-12-09T11:35:00.134Z,-2.60
2023-12-09T11:37:28.945Z,-2.54
2023-12-09T11:39:56.250Z,-2.58
2023-12-09T11:42:23.030Z,-2.55
2023-12-09T11:44:49.609Z,-2.59
2023-12-09T11:47:16.149Z,-2.59
2023-12-09T11:49:44.733Z,-2.56
2023-12-09T11:52:11.314Z,-2.53
2023-12-09T11:54:37.768Z,-2.59
2023-12-09T11:57:04.507Z,-2.50
2023-12-09T11:59:31.021Z,-2.55
2023-12-09T12:01:59.572Z,-2.52
2023-12-09T12:04:27.532Z,-2.49
2023-12-09T12:06:54.112Z,-2.48
2023-12-09T12:09:20.664Z,-2.48
2023-12-09T12:11:47.128Z,-2.49
2023-12-09T12:14:14.312Z,-2.50
2023-12-09T12:16:40.837Z,-2.48
2023-12-09T12:19:07.449Z,-2.39
2023-12-09T12:21:34.099Z,-2.42
2023-12-09T12:24:02.680Z,-2.45
2023-12-09T12:26:29.249Z,-2.44
2023-12-09T12:28:55.754Z,-2.39
2023-12-09T12:31:22.255Z,-2.48
2023-12-09T12:33:49.059Z,-2.33
2023-12-09T12:36:15.706Z,-2.36
2023-12-09T12:38:42.202Z,-2.41
2023-12-09T12:41:09.050Z,-2.31
2023-12-09T12:43:36.510Z,-2.29
2023-12-09T12:46:04.772Z,-2.26
2023-12-09T12:48:32.025Z,-2.34
2023-12-09T12:50:58.642Z,-2.29
2023-12-09T12:53:26.660Z,-2.33
2023-12-09T12:55:55.921Z,-2.32
2023-12-09T12:58:23.137Z,-2.33
2023-12-09T13:00:50.916Z,-2.36
2023-12-09T13:03:17.831Z,-2.31
2023-12-09T13:05:44.633Z,-2.28
2023-12-09T13:08:11.214Z,-2.28
2023-12-09T13:10:37.702Z,-2.29
2023-12-09T13:13:06.702Z,-2.23
2023-12-09T13:15:33.398Z,-2.30
2023-12-09T13:18:00.041Z,-2.30
2023-12-09T13:20:26.705Z,-2.29
2023-12-09T13:22:53.146Z,-2.28
2023-12-09T13:25:19.769Z,-2.21
2023-12-09T13:27:47.012Z,-2.21
2023-12-09T13:30:15.205Z,-2.26
2023-12-09T13:32:42.065Z,-2.22
2023-12-09T13:35:08.766Z,-2.15
2023-12-09T13:37:35.891Z,-2.23
2023-12-09T13:40:02.672Z,-2.24
2023-12-09T13:42:29.749Z,-2.29
2023-12-09T13:44:56.527Z,-2.23
2023-12-09T13:47:23.624Z,-2.22
2023-12-09T13:49:50.357Z,-2.17
2023-12-09T13:52:17.359Z,-2.26
2023-12-09T13:54:44.374Z,-2.22
2023-12-09T13:57:11.192Z,-2.28
2023-12-09T13:59:37.829Z,-2.28
2023-12-09T14:02:04.331Z,-2.23
2023-12-09T14:04:31.001Z,-2.19
2023-12-09T14:06:57.507Z,-2.23
2023-12-09T14:09:24.142Z,-2.22
2023-12-09T14:11:50.926Z,-2.22
2023-12-09T14:14:17.474Z,-2.26
2023-12-09T14:16:44.018Z,-2.22
2023-12-09T14:19:11.749Z,-2.23
2023-12-09T14:21:39.413Z,-2.24
2023-12-09T14:24:06.336Z,-2.25
2023-12-09T14:26:35.274Z,-2.18
2023-12-09T14:29:02.250Z,-2.24
2023-12-09T14:31:31.764Z,-2.22
2023-12-09T14:33:58.638Z,-2.17
2023-12-09T14:36:25.354Z,-2.12
2023-12-09T14:38:51.829Z,-2.11
2023-12-09T14:41:18.386Z,-2.05
2023-12-09T14:43:47.081Z,-2.10
2023-12-09T14:46:14.766Z,-2.12
2023-12-09T14:48:41.444Z,-2.08
2023-12-09T14:51:08.147Z,-2.13
2023-12-09T14:53:34.770Z,-2.05
2023-12-09T14:56:02.016Z,-2.11
2023-12-09T14:58:29.214Z,-2.11
2023-12-09T15:00:56.425Z,-2.11
2023-12-09T15:03:23.123Z,-2.12
2023-12-09T15:05:49.702Z,-2.08
2023-12-09T15:08:16.389Z,-2.11
2023-12-09T15:10:42.886Z,-2.04
2023-12-09T15:13:09.446Z,-2.07
2023-12-09T15:15:36.084Z,-2.09
2023-12-09T15:18:02.831Z,-2.09
2023-12-09T15:20:29.406Z,-2.06
2023-12-09T15:22:56.003Z,-2.05
2023-12-09T15:25:23.317Z,-2.05
2023-12-09T15:27:49.884Z,-2.07
2023-12-09T15:30:16.576Z,-2.04
2023-12-09T15:32:45.427Z,-2.04
2023-12-09T15:35:12.221Z,-2.03
2023-12-09T15:37:38.720Z,-2.06
2023-12-09T15:40:10.263Z,-2.04
2023-12-09T15:42:37.017Z,-2.04
2023-12-09T15:45:04.418Z,-2.03
2023-12-09T15:47:31.176Z,-1.98
2023-12-09T15:49:57.776Z,-1.98
2023-12-09T15:52:24.305Z,-1.99
2023-12-09T15:54:50.769Z,-1.95
2023-12-09T15:57:17.238Z,-1.97
2023-12-09T15:59:43.698Z,-2.00
2023-12-09T16:02:10.274Z,-1.98
2023-12-09T16:04:36.750Z,-1.93
2023-12-09T16:07:03.340Z,-1.95
2023-12-09T16:09:36.342Z,-1.95
2023-12-09T16:12:05.309Z,-1.97
2023-12-09T16:14:31.787Z,-1.98
2023-12-09T16:16:58.610Z,-1.94
2023-12-09T16:19:25.259Z,-2.06
2023-12-09T16:21:51.872Z,-2.03
2023-12-09T16:24:19.610Z,-2.00
2023-12-09T16:26:46.214Z,-2.09
2023-12-09T16:29:12.679Z,-1.96
2023-12-09T16:31:40.110Z,-1.97
2023-12-09T16:34:07.051Z,-1.98
2023-12-09T16:36:34.253Z,-1.99
2023-12-09T16:39:00.868Z,-1.97
2023-12-09T16:41:27.376Z,-1.95
2023-12-09T16:43:53.818Z,-1.97
2023-12-09T16:46:20.277Z,-1.97
2023-12-09T16:48:46.853Z,-1.98
2023-12-09T16:51:13.995Z,-1.98
2023-12-09T16:53:40.573Z,-1.94
2023-12-09T16:56:07.386Z,-1.91
2023-12-09T16:58:34.782Z,-1.92
2023-12-09T17:01:01.367Z,-1.93
2023-12-09T17:03:28.367Z,-1.90
2023-12-09T17:05:54.992Z,-1.91
2023-12-09T17:08:21.536Z,-1.91
2023-12-09T17:10:48.017Z,-1.90
2023-12-09T17:13:14.514Z,-1.87
2023-12-09T17:15:41.024Z,-1.89
2023-12-09T17:18:07.596Z,-1.94
2023-12-09T17:20:34.268Z,-1.91
2023-12-09T17:23:00.789Z,-1.92
2023-12-09T17:25:27.398Z,-1.83
2023-12-09T17:27:53.995Z,-1.87
2023-12-09T17:30:20.700Z,-1.88
2023-12-09T17:32:47.323Z,-1.92
2023-12-09T17:35:13.868Z,-1.94
2023-12-09T17:37:40.363Z,-1.94
2023-12-09T17:40:08.027Z,-1.98
2023-12-09T17:42:34.692Z,-1.95
2023-12-09T17:45:01.305Z,-1.94
2023-12-09T17:47:28.163Z,-1.93
2023-12-09T17:49:54.781Z,-1.92
2023-12-09T17:52:23.046Z,-2.01
2023-12-09T17:54:50.150Z,-1.98
2023-12-09T17:57:16.759Z,-1.99
2023-12-09T17:59:43.266Z,-1.95
2023-12-09T18:02:10.405Z,-1.91
2023-12-09T18:04:36.903Z,-1.97
2023-12-09T18:07:04.544Z,-1.94
2023-12-09T18:09:31.168Z,-1.95
2023-12-09T18:11:59.070Z,-1.89
2023-12-09T18:14:25.657Z,-1.81
2023-12-09T18:16:52.110Z,-1.77
2023-12-09T18:19:20.430Z,-1.84
2023-12-09T18:21:47.109Z,-1.76
2023-12-09T18:24:14.192Z,-1.85
2023-12-09T18:26:42.409Z,-1.90
2023-12-09T18:29:09.135Z,-1.87
2023-12-09T18:31:35.587Z,-1.89
2023-12-09T18:34:02.201Z,-1.90
2023-12-09T18:36:28.807Z,-1.91
2023-12-09T18:38:55.318Z,-1.95
2023-12-09T18:41:21.797Z,-1.92
2023-12-09T18:43:50.058Z,-1.96
2023-12-09T18:46:16.860Z,-2.00
2023-12-09T18:48:43.492Z,-2.05
2023-12-09T18:51:10.076Z,-2.07
2023-12-09T18:53:36.564Z,-2.09
2023-12-09T18:56:04.661Z,-2.10
2023-12-09T18:58:31.382Z,-2.12
2023-12-09T19:01:05.028Z,-2.08
2023-12-09T19:03:37.441Z,-2.15
2023-12-09T19:06:05.067Z,-2.07
2023-12-09T19:08:32.582Z,-2.07
2023-12-09T19:10:59.074Z,-2.11
2023-12-09T19:13:25.680Z,-2.00
2023-12-09T19:15:52.446Z,-2.08
2023-12-09T19:18:19.233Z,-2.03
2023-12-09T19:20:45.983Z,-2.04
2023-12-09T19:23:12.573Z,-2.08
2023-12-09T19:25:39.086Z,-2.10
2023-12-09T19:28:05.618Z,-2.13
2023-12-09T19:30:32.298Z,-2.08
2023-12-09T19:32:59.723Z,-2.05
2023-12-09T19:35:29.061Z,-2.04
2023-12-09T19:37:56.755Z,-2.01
2023-12-09T19:40:23.477Z,-2.03
2023-12-09T19:42:52.460Z,-2.09
2023-12-09T19:45:20.355Z,-2.06
2023-12-09T19:47:47.054Z,-2.08
2023-12-09T19:50:14.156Z,-2.02
2023-12-09T19:52:40.726Z,-1.98
2023-12-09T19:55:07.387Z,-2.00
2023-12-09T19:57:33.932Z,-1.99
2023-12-09T20:00:00.621Z,-1.95
2023-12-09T20:02:27.355Z,-1.94
2023-12-09T20:04:54.006Z,-1.93
2023-12-09T20:07:20.757Z,-1.95
2023-12-09T20:09:49.478Z,-1.97
2023-12-09T20:12:16.018Z,-2.00
2023-12-09T20:14:42.595Z,-2.03
2023-12-09T20:17:09.145Z,-2.04
2023-12-09T20:19:39.006Z,-1.96
2023-12-09T20:22:05.720Z,-1.92
2023-12-09T20:24:32.299Z,-1.93
2023-12-09T20:26:59.170Z,-1.94
2023-12-09T20:29:25.698Z,-1.97
2023-12-09T20:31:52.265Z,-1.98
2023-12-09T20:34:19.900Z,-1.97
2023-12-09T20:36:47.048Z,-1.90
2023-12-09T20:39:13.680Z,-1.94
2023-12-09T20:41:42.925Z,-1.84
2023-12-09T20:44:09.466Z,-1.87
2023-12-09T20:46:36.007Z,-1.87
2023-12-09T20:49:02.636Z,-1.90
2023-12-09T20:51:30.411Z,-1.89
2023-12-09T20:53:56.926Z,-1.85
2023-12-09T20:56:23.475Z,-1.90
2023-12-09T20:58:50.016Z,-1.88
2023-12-09T21:01:16.911Z,-1.87
2023-12-09T21:03:43.810Z,-1.87
2023-12-09T21:06:10.870Z,-1.87
2023-12-09T21:08:40.199Z,-1.83
2023-12-09T21:11:06.929Z,-1.86
2023-12-09T21:13:33.453Z,-1.90
2023-12-09T21:16:00.551Z,-1.81
2023-12-09T21:18:27.235Z,-1.83
2023-12-09T21:20:54.310Z,-1.81
2023-12-09T21:23:20.998Z,-1.80
2023-12-09T21:25:49.224Z,-1.81
2023-12-09T21:28:15.738Z,-1.84
2023-12-09T21:30:43.368Z,-1.80
2023-12-09T21:33:10.127Z,-1.75
2023-12-09T21:35:36.710Z,-1.76
2023-12-09T21:38:03.996Z,-1.71
2023-12-09T21:40:32.355Z,-1.64
2023-12-09T21:42:59.011Z,-1.68
2023-12-09T21:45:26.258Z,-1.69
2023-12-09T21:47:55.962Z,-1.63
2023-12-09T21:50:23.789Z,-1.57
2023-12-09T21:52:50.790Z,-1.55
2023-12-09T21:55:17.260Z,-1.58
2023-12-09T21:57:43.930Z,-1.57
2023-12-09T22:00:10.871Z,-1.51
2023-12-09T22:02:39.403Z,-1.57
2023-12-09T22:05:06.334Z,-1.52
2023-12-09T22:07:32.940Z,-1.54
2023-12-09T22:09:59.393Z,-1.48
2023-12-09T22:12:26.351Z,-1.49
2023-12-09T22:14:53.146Z,-1.46
2023-12-09T22:17:19.643Z,-1.50
2023-12-09T22:19:46.497Z,-1.51
2023-12-09T22:22:12.988Z,-1.45
2023-12-09T22:24:39.714Z,-1.53
2023-12-09T22:27:07.741Z,-1.49
2023-12-09T22:29:36.058Z,-1.47
2023-12-09T22:32:02.579Z,-1.45
2023-12-09T22:34:29.500Z,-1.50
2023-12-09T22:36:57.112Z,-1.54
2023-12-09T22:39:23.825Z,-1.54
2023-12-09T22:41:50.358Z,-1.54
2023-12-09T22:44:16.896Z,-1.54
2023-12-09T22:46:43.960Z,-1.52
2023-12-09T22:49:10.676Z,-1.43
2023-12-09T22:51:37.639Z,-1.43
2023-12-09T22:54:04.244Z,-1.45
2023-12-09T22:56:33.493Z,-1.39
2023-12-09T22:59:00.253Z,-1.42
2023-12-09T23:01:27.448Z,-1.43
2023-12-09T23:03:54.143Z,-1.42
2023-12-09T23:06:20.942Z,-1.40
2023-12-09T23:08:47.940Z,-1.40
2023-12-09T23:11:14.729Z,-1.39
2023-12-09T23:13:41.223Z,-1.39
2023-12-09T23:16:09.267Z,-1.40
2023-12-09T23:18:36.540Z,-1.43
2023-12-09T23:21:03.632Z,-1.39
2023-12-09T23:23:30.103Z,-1.38
2023-12-09T23:25:56.686Z,-1.33
2023-12-09T23:28:23.480Z,-1.35
2023-12-09T23:30:50.335Z,-1.39
2023-12-09T23:33:17.007Z,-1.36
2023-12-09T23:35:43.675Z,-1.38
2023-12-09T23:38:10.141Z,-1.38
2023-12-09T23:40:39.412Z,-1.39
2023-12-09T23:43:05.964Z,-1.34
2023-12-09T23:45:32.675Z,-1.33
2023-12-09T23:47:59.521Z,-1.30
2023-12-09T23:50:26.160Z,-1.28
2023-12-09T23:52:53.074Z,-1.30
2023-12-09T23:55:19.536Z,-1.28
2023-12-09T23:57:46.186Z,-1.25
